createdAt,value
2023-02-21T00:00:33.540Z,9.20
2023-02-21T00:03:19.056Z,9.10
2023-02-21T00:06:04.497Z,9.10
2023-02-21T00:08:49.999Z,9.10
2023-02-21T00:11:35.373Z,9.10
2023-02-21T00:14:20.958Z,9.10
2023-02-21T00:17:06.388Z,9.10
2023-02-21T00:19:51.929Z,9.00
2023-02-21T00:22:37.201Z,9.00
2023-02-21T00:25:25.477Z,9.00
2023-02-21T00:28:11.116Z,9.00
2023-02-21T00:30:56.686Z,9.00
2023-02-21T00:33:41.954Z,9.00
2023-02-21T00:36:27.456Z,9.00
2023-02-21T00:39:12.945Z,9.10
2023-02-21T00:41:58.459Z,9.20
2023-02-21T00:44:46.555Z,9.20
2023-02-21T00:47:31.985Z,8.90
2023-02-21T00:50:17.539Z,9.00
2023-02-21T00:53:02.921Z,9.00
2023-02-21T00:55:48.386Z,9.00
2023-02-21T00:58:33.974Z,9.00
2023-02-21T01:01:19.494Z,9.00
2023-02-21T01:04:05.062Z,9.00
2023-02-21T01:06:50.496Z,9.00
2023-02-21T01:09:36.076Z,9.00
2023-02-21T01:12:21.618Z,9.00
2023-02-21T01:15:06.822Z,9.00
2023-02-21T01:17:52.419Z,9.00
2023-02-21T01:20:37.592Z,9.00
2023-02-21T01:23:23.057Z,8.90
2023-02-21T01:26:08.607Z,8.90
2023-02-21T01:28:53.750Z,8.80
2023-02-21T01:31:39.789Z,8.80
2023-02-21T01:34:25.337Z,8.80
2023-02-21T01:37:11.089Z,8.80
2023-02-21T01:39:57.572Z,8.90
2023-02-21T01:42:44.252Z,8.80
2023-02-21T01:45:39.632Z,8.80
2023-02-21T01:48:27.473Z,8.70
2023-02-21T01:51:14.795Z,8.60
2023-02-21T01:54:00.980Z,8.60
2023-02-21T01:56:46.986Z,8.60
2023-02-21T01:59:32.482Z,8.60
2023-02-21T02:02:23.450Z,8.50
2023-02-21T02:05:11.431Z,8.50
2023-02-21T02:07:57.046Z,8.50
2023-02-21T02:10:42.603Z,8.50
2023-02-21T02:13:24.159Z,8.50
2023-02-21T02:16:08.122Z,8.50
2023-02-21T02:18:45.924Z,8.40
2023-02-21T02:21:50.332Z,8.40
2023-02-21T02:24:31.565Z,8.40
2023-02-21T02:27:21.115Z,8.40
2023-02-21T02:30:05.009Z,8.40
2023-02-21T02:32:40.864Z,8.40
2023-02-21T02:35:10.448Z,8.40
2023-02-21T02:37:50.891Z,8.40
2023-02-21T02:40:55.177Z,8.40
2023-02-21T02:43:33.785Z,8.30
2023-02-21T02:46:06.745Z,8.30
2023-02-21T02:48:57.585Z,8.30
2023-02-21T02:51:26.693Z,8.30
2023-02-21T02:53:53.657Z,8.30
2023-02-21T02:56:23.584Z,8.30
2023-02-21T02:59:05.772Z,8.20
2023-02-21T03:01:53.554Z,8.20
2023-02-21T03:04:57.533Z,8.10
2023-02-21T03:07:31.359Z,8.10
2023-02-21T03:10:11.893Z,8.10
2023-02-21T03:13:08.255Z,8.10
2023-02-21T03:15:56.640Z,8.10
2023-02-21T03:18:52.416Z,8.10
2023-02-21T03:21:24.890Z,8.10
2023-02-21T03:23:54.497Z,8.10
2023-02-21T03:26:21.365Z,8.10
2023-02-21T03:28:49.872Z,8.10
2023-02-21T03:31:19.668Z,8.10
2023-02-21T03:33:46.447Z,8.10
2023-02-21T03:36:15.570Z,8.10
2023-02-21T03:38:42.376Z,8.20
2023-02-21T03:41:11.369Z,8.10
2023-02-21T03:43:38.080Z,8.10
2023-02-21T03:46:04.936Z,8.10
2023-02-21T03:48:32.808Z,8.00
2023-02-21T03:51:00.184Z,8.10
2023-02-21T03:53:27.242Z,8.10
2023-02-21T03:55:54.048Z,8.00
2023-02-21T03:58:20.839Z,8.00
2023-02-21T04:00:47.837Z,8.00
2023-02-21T04:03:15.603Z,8.00
2023-02-21T04:05:42.477Z,8.00
2023-02-21T04:08:09.495Z,7.90
2023-02-21T04:10:46.880Z,7.90
2023-02-21T04:13:19.553Z,7.90
2023-02-21T04:15:46.333Z,7.80
2023-02-21T04:18:13.255Z,8.90
2023-02-21T04:20:40.011Z,7.80
2023-02-21T04:23:06.897Z,7.80
2023-02-21T04:25:33.692Z,7.70
2023-02-21T04:28:00.392Z,7.70
2023-02-21T04:30:27.209Z,8.00
2023-02-21T04:32:54.055Z,7.80
2023-02-21T04:35:20.818Z,7.70
2023-02-21T04:37:47.631Z,7.70
2023-02-21T04:40:14.442Z,7.80
2023-02-21T04:42:41.257Z,7.70
2023-02-21T04:45:08.349Z,7.70
2023-02-21T04:47:35.155Z,7.70
2023-02-21T04:50:01.999Z,7.60
2023-02-21T04:52:28.805Z,7.60
2023-02-21T04:54:55.585Z,7.60
2023-02-21T04:57:22.357Z,7.60
2023-02-21T04:59:49.233Z,7.70
2023-02-21T05:02:15.944Z,7.70
2023-02-21T05:04:43.238Z,7.70
2023-02-21T05:07:10.078Z,7.70
2023-02-21T05:09:36.806Z,7.70
2023-02-21T05:12:03.720Z,7.70
2023-02-21T05:14:30.489Z,7.70
2023-02-21T05:16:57.188Z,7.70
2023-02-21T05:19:29.870Z,7.70
2023-02-21T05:21:58.527Z,7.60
2023-02-21T05:24:27.341Z,7.70
2023-02-21T05:26:54.849Z,7.70
2023-02-21T05:29:22.768Z,7.70
2023-02-21T05:31:49.955Z,7.70
2023-02-21T05:34:20.039Z,7.60
2023-02-21T05:36:47.114Z,7.60
2023-02-21T05:39:13.953Z,7.60
2023-02-21T05:41:47.439Z,7.70
2023-02-21T05:44:14.677Z,7.60
2023-02-21T05:46:41.911Z,7.60
2023-02-21T05:49:08.774Z,7.60
2023-02-21T05:51:37.767Z,7.60
2023-02-21T05:54:06.499Z,7.50
2023-02-21T05:56:43.666Z,7.50
2023-02-21T05:59:11.039Z,7.50
2023-02-21T06:01:37.893Z,7.50
2023-02-21T06:04:05.169Z,7.50
2023-02-21T06:06:31.992Z,7.50
2023-02-21T06:08:58.920Z,7.50
2023-02-21T06:11:28.440Z,7.60
2023-02-21T06:13:57.066Z,7.50
2023-02-21T06:16:24.343Z,7.60
2023-02-21T06:18:55.738Z,7.60
2023-02-21T06:21:23.316Z,7.60
2023-02-21T06:23:50.372Z,7.60
2023-02-21T06:26:18.505Z,7.60
2023-02-21T06:28:45.466Z,7.60
2023-02-21T06:31:12.500Z,7.60
2023-02-21T06:33:39.454Z,7.50
2023-02-21T06:36:08.736Z,7.50
2023-02-21T06:38:35.548Z,7.60
2023-02-21T06:41:08.988Z,7.70
2023-02-21T06:43:39.387Z,7.60
2023-02-21T06:46:06.251Z,7.60
2023-02-21T06:48:33.125Z,7.60
2023-02-21T06:51:00.167Z,7.60
2023-02-21T06:53:27.020Z,7.90
2023-02-21T06:55:53.921Z,7.60
2023-02-21T06:58:20.718Z,7.50
2023-02-21T07:00:47.537Z,7.50
2023-02-21T07:03:14.277Z,7.60
2023-02-21T07:05:41.262Z,7.60
2023-02-21T07:08:08.060Z,7.60
2023-02-21T07:10:34.959Z,7.50
2023-02-21T07:13:01.739Z,7.50
2023-02-21T07:15:28.789Z,7.50
2023-02-21T07:17:55.585Z,6.40
2023-02-21T07:20:22.425Z,7.60
2023-02-21T07:22:49.517Z,7.50
2023-02-21T07:25:19.104Z,7.60
2023-02-21T07:27:47.944Z,7.60
2023-02-21T07:30:15.571Z,7.70
2023-02-21T07:32:42.444Z,7.80
2023-02-21T07:35:09.698Z,7.80
2023-02-21T07:37:36.461Z,7.90
2023-02-21T07:40:04.143Z,7.90
2023-02-21T07:42:31.217Z,8.00
2023-02-21T07:44:58.833Z,8.00
2023-02-21T07:47:27.112Z,8.10
2023-02-21T07:49:54.740Z,8.20
2023-02-21T07:52:22.877Z,8.40
2023-02-21T07:54:49.724Z,8.50
2023-02-21T07:57:17.678Z,8.70
2023-02-21T07:59:44.825Z,8.90
2023-02-21T08:02:12.479Z,9.00
2023-02-21T08:04:40.000Z,9.00
2023-02-21T08:07:07.973Z,9.10
2023-02-21T08:09:36.249Z,9.20
2023-02-21T08:12:03.757Z,9.20
2023-02-21T08:14:30.782Z,9.30
2023-02-21T08:16:57.663Z,10.00
2023-02-21T08:19:24.553Z,9.50
2023-02-21T08:21:51.323Z,9.70
2023-02-21T08:24:19.439Z,9.80
2023-02-21T08:26:46.701Z,10.10
2023-02-21T08:29:14.981Z,10.00
2023-02-21T08:31:44.427Z,10.00
2023-02-21T08:34:12.414Z,10.10
2023-02-21T08:36:41.944Z,10.30
2023-02-21T08:39:09.823Z,10.40
2023-02-21T08:41:42.451Z,10.40
2023-02-21T08:44:16.360Z,10.50
2023-02-21T08:46:43.885Z,10.60
2023-02-21T08:49:11.319Z,10.70
2023-02-21T08:51:38.188Z,10.80
2023-02-21T08:54:05.161Z,11.00
2023-02-21T08:56:32.087Z,10.80
2023-02-21T08:58:59.175Z,10.90
2023-02-21T09:01:32.535Z,10.90
2023-02-21T09:03:59.461Z,11.10
2023-02-21T09:06:26.269Z,11.10
2023-02-21T09:08:53.051Z,11.10
2023-02-21T09:11:19.875Z,11.20
2023-02-21T09:13:46.630Z,11.20
2023-02-21T09:16:13.626Z,11.30
2023-02-21T09:18:40.617Z,11.40
2023-02-21T09:21:07.765Z,11.50
2023-02-21T09:23:34.660Z,11.50
2023-02-21T09:26:01.554Z,11.60
2023-02-21T09:28:29.430Z,11.60
2023-02-21T09:30:56.393Z,11.70
2023-02-21T09:33:25.179Z,11.70
2023-02-21T09:35:54.036Z,11.70
2023-02-21T09:38:21.114Z,11.80
2023-02-21T09:41:00.193Z,11.80
2023-02-21T09:43:43.224Z,11.80
2023-02-21T09:46:31.451Z,12.00
2023-02-21T09:48:58.602Z,11.90
2023-02-21T09:51:26.421Z,12.00
2023-02-21T09:53:56.324Z,12.10
2023-02-21T09:56:29.944Z,12.10
2023-02-21T09:58:58.890Z,12.20
2023-02-21T10:01:48.845Z,12.20
2023-02-21T10:04:39.328Z,12.20
2023-02-21T10:07:08.808Z,12.30
2023-02-21T10:09:53.701Z,12.30
2023-02-21T10:12:58.189Z,12.30
2023-02-21T10:15:43.764Z,12.40
2023-02-21T10:18:25.714Z,12.40
2023-02-21T10:20:54.771Z,12.40
2023-02-21T10:23:35.824Z,12.40
2023-02-21T10:26:09.381Z,12.50
2023-02-21T10:28:37.648Z,12.60
2023-02-21T10:31:16.322Z,12.70
2023-02-21T10:33:43.744Z,12.70
2023-02-21T10:36:22.388Z,12.70
2023-02-21T10:38:59.599Z,12.80
2023-02-21T10:41:31.315Z,12.80
2023-02-21T10:44:18.586Z,12.90
2023-02-21T10:47:08.713Z,12.90
2023-02-21T10:49:59.888Z,12.90
2023-02-21T10:52:27.075Z,13.00
2023-02-21T10:55:11.894Z,13.00
2023-02-21T10:57:54.326Z,13.10
2023-02-21T11:00:36.392Z,13.20
2023-02-21T11:03:27.410Z,13.20
2023-02-21T11:06:02.472Z,13.20
2023-02-21T11:08:40.912Z,13.20
2023-02-21T11:11:08.642Z,13.30
2023-02-21T11:13:36.708Z,13.30
2023-02-21T11:16:19.959Z,13.40
2023-02-21T11:18:47.143Z,13.40
2023-02-21T11:21:17.432Z,13.50
2023-02-21T11:23:59.036Z,13.50
2023-02-21T11:26:30.301Z,13.50
2023-02-21T11:29:10.598Z,13.60
2023-02-21T11:31:37.580Z,13.60
2023-02-21T11:34:07.183Z,13.70
2023-02-21T11:36:40.497Z,13.70
2023-02-21T11:39:32.878Z,13.70
2023-02-21T11:42:04.152Z,13.80
2023-02-21T11:44:40.668Z,13.80
2023-02-21T11:47:23.168Z,13.90
2023-02-21T11:50:20.119Z,13.90
2023-02-21T11:53:07.644Z,14.00
2023-02-21T11:55:35.181Z,14.00
2023-02-21T11:58:40.138Z,14.00
2023-02-21T12:01:20.876Z,14.00
2023-02-21T12:04:15.704Z,14.00
2023-02-21T12:06:49.091Z,14.10
2023-02-21T12:09:29.220Z,14.20
2023-02-21T12:12:20.016Z,14.20
2023-02-21T12:15:08.788Z,14.20
2023-02-21T12:17:54.325Z,14.30
2023-02-21T12:20:54.303Z,14.30
2023-02-21T12:23:52.802Z,14.20
2023-02-21T12:26:48.554Z,14.20
2023-02-21T12:29:36.109Z,14.20
2023-02-21T12:32:24.567Z,14.30
2023-02-21T12:35:10.737Z,14.20
2023-02-21T12:37:53.377Z,14.30
2023-02-21T12:40:42.011Z,14.30
2023-02-21T12:43:11.525Z,14.30
2023-02-21T12:45:58.958Z,14.30
2023-02-21T12:48:35.256Z,14.30
2023-02-21T12:51:08.502Z,14.40
2023-02-21T12:53:54.341Z,14.40
2023-02-21T12:56:47.144Z,14.40
2023-02-21T12:59:17.522Z,14.30
2023-02-21T13:02:12.197Z,14.30
2023-02-21T13:04:54.247Z,14.30
2023-02-21T13:07:27.112Z,14.40
2023-02-21T13:10:07.623Z,14.30
2023-02-21T13:12:58.955Z,14.30
2023-02-21T13:15:29.889Z,14.40
2023-02-21T13:18:09.940Z,14.40
2023-02-21T13:20:44.159Z,14.50
2023-02-21T13:23:12.493Z,14.50
2023-02-21T13:26:20.610Z,14.60
2023-02-21T13:28:52.700Z,14.60
2023-02-21T13:31:27.048Z,14.40
2023-02-21T13:34:01.599Z,14.50
2023-02-21T13:36:44.283Z,14.50
2023-02-21T13:39:14.013Z,14.50
2023-02-21T13:41:45.346Z,14.70
2023-02-21T13:44:34.085Z,14.70
2023-02-21T13:47:06.238Z,14.70
2023-02-21T13:49:48.531Z,14.70
2023-02-21T13:52:24.688Z,14.70
2023-02-21T13:55:18.176Z,14.70
2023-02-21T13:58:15.240Z,14.80
2023-02-21T14:00:42.079Z,14.90
2023-02-21T14:03:14.088Z,14.70
2023-02-21T14:05:47.033Z,14.70
2023-02-21T14:08:15.289Z,14.70
2023-02-21T14:10:52.387Z,14.70
2023-02-21T14:13:27.938Z,14.70
2023-02-21T14:16:22.630Z,14.80
2023-02-21T14:19:01.597Z,14.80
2023-02-21T14:21:43.235Z,14.80
2023-02-21T14:24:09.963Z,14.70
2023-02-21T14:26:51.847Z,14.70
2023-02-21T14:30:05.746Z,14.70
2023-02-21T14:32:47.507Z,14.70
2023-02-21T14:35:23.728Z,14.70
2023-02-21T14:38:03.212Z,14.70
2023-02-21T14:40:33.108Z,14.70
2023-02-21T14:43:24.474Z,14.70
2023-02-21T14:46:17.726Z,14.60
2023-02-21T14:48:47.633Z,14.60
2023-02-21T14:51:33.547Z,14.60
2023-02-21T14:54:29.648Z,14.60
2023-02-21T14:57:22.812Z,14.60
2023-02-21T14:59:55.512Z,14.70
2023-02-21T15:02:54.442Z,14.60
2023-02-21T15:05:50.493Z,14.60
2023-02-21T15:08:21.049Z,14.60
2023-02-21T15:10:50.154Z,14.70
2023-02-21T15:13:33.062Z,14.70
2023-02-21T15:16:05.931Z,14.70
2023-02-21T15:18:37.244Z,14.70
2023-02-21T15:21:10.102Z,14.80
2023-02-21T15:23:38.923Z,14.70
2023-02-21T15:26:18.377Z,14.70
2023-02-21T15:28:45.965Z,14.80
2023-02-21T15:31:14.529Z,14.70
2023-02-21T15:33:43.463Z,14.70
2023-02-21T15:36:21.069Z,14.70
2023-02-21T15:39:00.797Z,14.80
2023-02-21T15:41:44.169Z,14.70
2023-02-21T15:44:29.756Z,14.70
2023-02-21T15:47:09.651Z,14.70
2023-02-21T15:50:05.590Z,14.70
2023-02-21T15:52:41.195Z,14.70
2023-02-21T15:55:20.360Z,14.70
2023-02-21T15:58:06.725Z,14.70
2023-02-21T16:00:34.728Z,14.70
2023-02-21T16:03:26.184Z,14.70
2023-02-21T16:05:55.540Z,14.70
2023-02-21T16:08:22.994Z,14.60
2023-02-21T16:10:50.102Z,14.60
2023-02-21T16:13:17.279Z,14.70
2023-02-21T16:15:45.598Z,14.60
2023-02-21T16:18:18.873Z,14.60
2023-02-21T16:20:46.031Z,14.60
2023-02-21T16:23:24.904Z,14.60
2023-02-21T16:26:21.131Z,14.60
2023-02-21T16:28:47.984Z,14.60
2023-02-21T16:31:18.004Z,14.60
2023-02-21T16:33:45.127Z,14.50
2023-02-21T16:36:25.739Z,14.50
2023-02-21T16:38:52.561Z,14.50
2023-02-21T16:41:19.576Z,14.50
2023-02-21T16:43:46.825Z,14.50
2023-02-21T16:46:14.833Z,14.50
2023-02-21T16:48:41.935Z,14.40
2023-02-21T16:51:16.720Z,14.40
2023-02-21T16:53:44.085Z,14.40
2023-02-21T16:56:11.027Z,14.40
2023-02-21T16:58:48.475Z,14.30
2023-02-21T17:01:21.864Z,14.30
2023-02-21T17:03:48.662Z,14.30
2023-02-21T17:06:21.090Z,14.30
2023-02-21T17:08:48.017Z,14.20
2023-02-21T17:11:15.085Z,14.30
2023-02-21T17:13:42.163Z,14.30
2023-02-21T17:16:10.226Z,14.30
2023-02-21T17:18:37.113Z,14.20
2023-02-21T17:21:04.601Z,14.20
2023-02-21T17:23:31.687Z,14.20
2023-02-21T17:25:58.441Z,14.20
2023-02-21T17:28:25.216Z,14.20
2023-02-21T17:30:52.072Z,14.20
2023-02-21T17:33:18.805Z,14.20
2023-02-21T17:35:45.979Z,14.10
2023-02-21T17:38:12.813Z,14.10
2023-02-21T17:40:39.595Z,14.10
2023-02-21T17:43:08.754Z,14.00
2023-02-21T17:45:38.744Z,14.00
2023-02-21T17:48:06.240Z,14.10
2023-02-21T17:50:33.169Z,14.00
2023-02-21T17:53:00.143Z,13.90
2023-02-21T17:55:29.111Z,13.90
2023-02-21T17:57:57.550Z,13.90
2023-02-21T18:00:27.060Z,13.80
2023-02-21T18:02:55.534Z,13.80
2023-02-21T18:05:22.905Z,13.80
2023-02-21T18:07:51.288Z,13.70
2023-02-21T18:10:20.169Z,13.70
2023-02-21T18:12:49.837Z,13.10
2023-02-21T18:15:17.854Z,13.60
2023-02-21T18:17:44.544Z,13.70
2023-02-21T18:20:12.300Z,13.60
2023-02-21T18:22:39.053Z,13.50
2023-02-21T18:25:06.376Z,13.40
2023-02-21T18:27:33.143Z,13.40
2023-02-21T18:29:59.954Z,13.40
2023-02-21T18:32:27.098Z,13.40
2023-02-21T18:34:54.197Z,13.30
2023-02-21T18:37:21.074Z,13.20
2023-02-21T18:39:52.418Z,13.20
2023-02-21T18:42:21.267Z,13.20
2023-02-21T18:44:49.214Z,13.40
2023-02-21T18:47:17.348Z,13.20
2023-02-21T18:49:44.363Z,13.00
2023-02-21T18:52:12.383Z,13.00
2023-02-21T18:54:50.626Z,13.00
2023-02-21T18:57:20.653Z,12.90
2023-02-21T18:59:47.993Z,12.80
2023-02-21T19:02:17.847Z,13.40
2023-02-21T19:04:45.060Z,12.70
2023-02-21T19:07:16.867Z,12.70
2023-02-21T19:09:46.546Z,12.70
2023-02-21T19:12:13.290Z,12.60
2023-02-21T19:14:40.084Z,13.30
2023-02-21T19:17:08.134Z,12.50
2023-02-21T19:19:35.796Z,12.40
2023-02-21T19:22:02.979Z,12.40
2023-02-21T19:24:29.732Z,12.40
2023-02-21T19:26:56.642Z,12.40
2023-02-21T19:29:23.435Z,12.30
2023-02-21T19:31:50.248Z,12.40
2023-02-21T19:34:20.247Z,12.30
2023-02-21T19:36:47.131Z,11.80
2023-02-21T19:39:13.970Z,12.20
2023-02-21T19:41:40.816Z,12.20
2023-02-21T19:44:08.446Z,12.10
2023-02-21T19:46:35.597Z,12.10
2023-02-21T19:49:02.562Z,12.10
2023-02-21T19:51:31.510Z,12.00
2023-02-21T19:53:59.203Z,12.00
2023-02-21T19:56:26.937Z,12.00
2023-02-21T19:58:53.915Z,12.10
2023-02-21T20:01:21.785Z,12.00
2023-02-21T20:03:49.765Z,11.90
2023-02-21T20:06:17.594Z,11.90
2023-02-21T20:08:47.931Z,11.80
2023-02-21T20:11:16.974Z,11.80
2023-02-21T20:13:44.464Z,11.70
2023-02-21T20:16:15.286Z,11.80
2023-02-21T20:18:43.126Z,11.70
2023-02-21T20:21:10.640Z,11.70
2023-02-21T20:23:38.291Z,11.60
2023-02-21T20:26:05.183Z,11.60
2023-02-21T20:28:32.064Z,11.60
2023-02-21T20:30:58.824Z,11.60
2023-02-21T20:33:25.603Z,11.70
2023-02-21T20:35:52.674Z,11.60
2023-02-21T20:38:19.913Z,11.50
2023-02-21T20:40:47.230Z,11.60
2023-02-21T20:43:14.258Z,11.40
2023-02-21T20:45:41.110Z,11.30
2023-02-21T20:48:11.099Z,11.30
2023-02-21T20:50:38.367Z,11.20
2023-02-21T20:53:05.854Z,11.20
2023-02-21T20:55:32.771Z,11.20
2023-02-21T20:57:59.606Z,11.20
2023-02-21T21:00:30.451Z,11.20
2023-02-21T21:02:57.640Z,11.20
2023-02-21T21:05:25.584Z,11.20
2023-02-21T21:07:55.810Z,11.10
2023-02-21T21:10:23.023Z,11.10
2023-02-21T21:12:51.421Z,11.10
2023-02-21T21:15:19.988Z,11.00
2023-02-21T21:17:46.863Z,11.00
2023-02-21T21:20:20.003Z,11.10
2023-02-21T21:22:47.466Z,11.00
2023-02-21T21:25:15.516Z,10.90
2023-02-21T21:27:44.366Z,10.90
2023-02-21T21:30:22.368Z,10.80
2023-02-21T21:32:49.801Z,10.80
2023-02-21T21:35:19.782Z,10.90
2023-02-21T21:37:48.317Z,10.70
2023-02-21T21:40:16.779Z,12.60
2023-02-21T21:42:45.636Z,10.60
2023-02-21T21:45:18.471Z,10.60
2023-02-21T21:47:46.876Z,10.80
2023-02-21T21:50:17.604Z,10.60
2023-02-21T21:52:48.996Z,10.80
2023-02-21T21:55:18.143Z,10.50
2023-02-21T21:57:45.394Z,10.50
2023-02-21T22:00:21.518Z,10.50
2023-02-21T22:02:50.100Z,10.50
2023-02-21T22:05:17.446Z,10.40
2023-02-21T22:07:44.352Z,10.40
2023-02-21T22:10:11.662Z,10.30
2023-02-21T22:12:39.310Z,10.20
2023-02-21T22:15:10.495Z,10.30
2023-02-21T22:17:37.721Z,10.30
2023-02-21T22:20:17.354Z,10.30
2023-02-21T22:22:49.133Z,10.20
2023-02-21T22:25:19.154Z,10.20
2023-02-21T22:27:48.013Z,10.30
2023-02-21T22:30:20.675Z,10.30
2023-02-21T22:32:48.787Z,10.20
2023-02-21T22:35:19.284Z,10.20
2023-02-21T22:37:51.351Z,10.20
2023-02-21T22:40:24.364Z,10.10
2023-02-21T22:42:54.903Z,10.40
2023-02-21T22:45:23.262Z,10.10
2023-02-21T22:47:52.160Z,10.00
2023-02-21T22:50:20.748Z,10.00
2023-02-21T22:52:59.417Z,9.90
2023-02-21T22:55:29.863Z,9.90
2023-02-21T22:57:59.899Z,9.90
2023-02-21T23:00:33.106Z,9.90
2023-02-21T23:03:02.446Z,9.90
2023-02-21T23:05:29.380Z,9.90
2023-02-21T23:08:00.372Z,9.90
2023-02-21T23:10:28.700Z,9.90
2023-02-21T23:12:58.379Z,9.90
2023-02-21T23:15:26.170Z,9.90
2023-02-21T23:17:54.104Z,9.80
2023-02-21T23:20:26.664Z,9.80
2023-02-21T23:22:54.670Z,9.80
2023-02-21T23:25:35.481Z,9.80
2023-02-21T23:28:05.871Z,9.70
2023-02-21T23:30:41.321Z,9.60
2023-02-21T23:33:08.148Z,9.60
2023-02-21T23:35:35.341Z,9.60
2023-02-21T23:38:02.635Z,9.60
2023-02-21T23:40:33.094Z,9.60
2023-02-21T23:43:01.003Z,9.60
2023-02-21T23:45:27.824Z,9.60
2023-02-21T23:47:55.830Z,9.70
2023-02-21T23:50:30.443Z,9.50
2023-02-21T23:53:02.453Z,9.50
2023-02-21T23:55:30.069Z,9.60
2023-02-21T23:58:03.507Z,9.50
